Exira, Iowa
Current Conditions -  °F | °C
As of 5:55 AM on Monday 24 Nov 2014 (Local Time) from KADU Reporting Station
Scattered Clouds Scattered Clouds  
Wind Chill: 13°   Ceiling: Unl
Heat Index: 25°   Visibility: 10mi
Dew Point: 14°   Wind: 14mph
Humidity: 64%   Direction: 300°WNW
Pressure: 29.52"   Gusts: 21mph
Location:  41.59°N, 94.88°W
Report Text: KADU 241155Z AUTO 30012G18KT 280V350 10SM SCT022 SCT035 SCT042 M04/M10 A2952 RMK AO2
Loading
Personal Weather Stations






























Interactive Weather Map New forecast layout! Learn more

10-Day Weather Forecast

Advertisements
Track Severe Weather on mobile